createdAt,value
2019-03-25T00:00:02.280Z,2.83
2019-03-25T00:02:30.967Z,1.80
2019-03-25T00:04:59.624Z,1.00
2019-03-25T00:07:28.516Z,2.50
2019-03-25T00:09:57.217Z,0.93
2019-03-25T00:12:25.841Z,1.13
2019-03-25T00:14:54.507Z,1.10
2019-03-25T00:17:23.243Z,2.20
2019-03-25T00:19:51.858Z,2.12
2019-03-25T00:22:20.573Z,1.60
2019-03-25T00:24:49.423Z,2.40
2019-03-25T00:27:18.118Z,2.10
2019-03-25T00:29:46.842Z,1.50
2019-03-25T00:32:15.465Z,1.72
2019-03-25T00:34:44.287Z,2.47
2019-03-25T00:37:12.920Z,1.15
2019-03-25T00:39:41.632Z,2.40
2019-03-25T00:42:10.359Z,3.27
2019-03-25T00:44:39.079Z,1.43
2019-03-25T00:47:07.751Z,1.70
2019-03-25T00:49:36.369Z,2.20
2019-03-25T00:52:05.112Z,3.17
2019-03-25T00:54:33.773Z,2.60
2019-03-25T00:57:02.453Z,5.00
2019-03-25T00:59:31.163Z,3.00
2019-03-25T01:01:59.923Z,3.43
2019-03-25T01:04:28.603Z,2.03
2019-03-25T01:06:57.250Z,1.90
2019-03-25T01:09:25.945Z,2.50
2019-03-25T01:11:54.614Z,3.70
2019-03-25T01:14:23.346Z,3.33
2019-03-25T01:16:52.075Z,3.60
2019-03-25T01:19:20.757Z,3.00
2019-03-25T01:21:49.562Z,4.17
2019-03-25T01:24:18.272Z,1.83
2019-03-25T01:26:47.123Z,2.80
2019-03-25T01:29:15.862Z,3.65
2019-03-25T01:31:44.509Z,2.37
2019-03-25T01:34:13.168Z,3.40
2019-03-25T01:36:42.019Z,4.43
2019-03-25T01:39:10.723Z,2.13
2019-03-25T01:41:39.397Z,2.83
2019-03-25T01:44:08.137Z,2.70
2019-03-25T01:46:36.955Z,1.03
2019-03-25T01:49:06.405Z,2.83
2019-03-25T01:51:35.039Z,2.37
2019-03-25T01:54:03.748Z,5.17
2019-03-25T01:56:32.480Z,2.60
2019-03-25T01:59:01.295Z,2.67
2019-03-25T02:01:29.992Z,1.93
2019-03-25T02:03:58.737Z,2.30
2019-03-25T02:06:27.385Z,2.07
2019-03-25T02:08:56.120Z,1.30
2019-03-25T02:11:24.949Z,1.20
2019-03-25T02:13:53.646Z,1.20
2019-03-25T02:16:22.205Z,1.20
2019-03-25T02:18:50.967Z,0.80
2019-03-25T02:21:19.726Z,1.10
2019-03-25T02:23:48.372Z,0.73
2019-03-25T02:26:17.141Z,0.93
2019-03-25T02:28:45.910Z,0.77
2019-03-25T02:31:14.527Z,0.78
2019-03-25T02:33:43.175Z,0.83
2019-03-25T02:36:11.872Z,0.80
2019-03-25T02:38:40.622Z,0.90
2019-03-25T02:41:09.296Z,0.80
2019-03-25T02:43:37.885Z,0.63
2019-03-25T02:46:06.645Z,0.53
2019-03-25T02:48:35.455Z,0.70
2019-03-25T02:51:05.102Z,0.75
2019-03-25T02:53:33.859Z,0.80
2019-03-25T02:56:02.700Z,0.83
2019-03-25T02:58:31.360Z,0.67
2019-03-25T03:01:00.073Z,0.80
2019-03-25T03:03:28.880Z,0.70
2019-03-25T03:05:57.543Z,0.50
2019-03-25T03:08:26.273Z,1.00
2019-03-25T03:10:54.891Z,0.60
2019-03-25T03:13:23.611Z,0.50
2019-03-25T03:15:52.301Z,0.77
2019-03-25T03:18:21.042Z,0.60
2019-03-25T03:20:49.807Z,0.60
2019-03-25T03:23:18.504Z,0.70
2019-03-25T03:25:57.352Z,0.50
2019-03-25T03:28:17.583Z,0.30
2019-03-25T03:30:46.334Z,0.53
2019-03-25T03:33:15.041Z,0.50
2019-03-25T03:35:46.374Z,0.60
2019-03-25T03:38:14.060Z,1.43
2019-03-25T03:40:42.770Z,0.40
2019-03-25T03:43:11.571Z,0.87
2019-03-25T03:45:40.306Z,0.87
2019-03-25T03:48:09.149Z,0.40
2019-03-25T03:50:38.111Z,0.60
2019-03-25T03:53:06.931Z,0.40
2019-03-25T03:55:37.135Z,0.83
2019-03-25T03:58:08.431Z,0.30
2019-03-25T04:00:37.340Z,0.70
2019-03-25T04:03:06.118Z,0.50
2019-03-25T04:05:34.839Z,1.10
2019-03-25T04:08:03.607Z,0.50
2019-03-25T04:10:32.350Z,0.30
2019-03-25T04:13:01.043Z,0.40
2019-03-25T04:15:31.926Z,0.30
2019-03-25T04:18:00.714Z,0.50
2019-03-25T04:20:29.451Z,0.57
2019-03-25T04:22:58.242Z,1.03
2019-03-25T04:25:26.968Z,0.80
2019-03-25T04:27:55.822Z,0.73
2019-03-25T04:30:24.543Z,0.83
2019-03-25T04:32:53.277Z,0.60
2019-03-25T04:35:21.926Z,0.40
2019-03-25T04:37:50.793Z,0.30
2019-03-25T04:40:19.527Z,0.70
2019-03-25T04:42:48.211Z,0.40
2019-03-25T04:45:16.943Z,0.70
2019-03-25T04:47:45.627Z,0.90
2019-03-25T04:50:14.543Z,0.80
2019-03-25T04:52:43.287Z,1.10
2019-03-25T04:55:12.104Z,0.70
2019-03-25T04:57:40.839Z,0.60
2019-03-25T05:00:10.696Z,2.37
2019-03-25T05:02:39.467Z,0.90
2019-03-25T05:05:09.630Z,1.20
2019-03-25T05:07:38.740Z,1.33
2019-03-25T05:10:09.863Z,1.50
2019-03-25T05:12:38.565Z,1.30
2019-03-25T05:15:07.886Z,2.55
2019-03-25T05:17:36.543Z,1.10
2019-03-25T05:20:06.698Z,1.47
2019-03-25T05:22:35.420Z,1.50
2019-03-25T05:25:06.847Z,1.72
2019-03-25T05:27:35.473Z,1.87
2019-03-25T05:30:06.771Z,1.83
2019-03-25T05:32:35.585Z,2.03
2019-03-25T05:35:07.120Z,1.10
2019-03-25T05:37:35.776Z,0.77
2019-03-25T05:40:05.346Z,1.10
2019-03-25T05:42:34.025Z,1.60
2019-03-25T05:45:02.903Z,1.20
2019-03-25T05:47:31.606Z,1.53
2019-03-25T05:50:00.410Z,2.50
2019-03-25T05:52:29.058Z,2.43
2019-03-25T05:54:57.767Z,3.12
2019-03-25T05:57:26.495Z,1.10
2019-03-25T05:59:55.278Z,1.73
2019-03-25T06:02:24.003Z,1.67
2019-03-25T06:04:52.737Z,1.83
2019-03-25T06:07:21.416Z,1.17
2019-03-25T06:09:50.119Z,0.67
2019-03-25T06:12:18.771Z,3.40
2019-03-25T06:14:47.437Z,2.00
2019-03-25T06:17:16.211Z,3.17
2019-03-25T06:19:44.962Z,1.87
2019-03-25T06:22:13.712Z,2.20
2019-03-25T06:24:42.333Z,0.70
2019-03-25T06:27:14.269Z,0.93
2019-03-25T06:29:43.708Z,2.17
2019-03-25T06:32:12.500Z,1.13
2019-03-25T06:34:41.062Z,0.60
2019-03-25T06:37:09.754Z,1.05
2019-03-25T06:39:38.418Z,2.67
2019-03-25T06:42:07.195Z,1.80
2019-03-25T06:44:35.940Z,3.22
2019-03-25T06:47:06.253Z,1.80
2019-03-25T06:49:35.002Z,1.30
2019-03-25T06:52:03.926Z,1.00
2019-03-25T06:54:32.706Z,1.07
2019-03-25T06:57:02.007Z,1.03
2019-03-25T06:59:30.767Z,2.70
2019-03-25T07:01:59.452Z,0.80
2019-03-25T07:04:28.330Z,0.50
2019-03-25T07:06:56.979Z,0.65
2019-03-25T07:09:25.685Z,0.70
2019-03-25T07:11:54.425Z,0.90
2019-03-25T07:14:23.327Z,0.80
2019-03-25T07:16:51.966Z,0.80
2019-03-25T07:19:20.671Z,1.77
2019-03-25T07:21:49.312Z,1.73
2019-03-25T07:24:18.021Z,1.50
2019-03-25T07:26:46.741Z,0.90
2019-03-25T07:29:15.444Z,1.75
2019-03-25T07:31:44.314Z,1.20
2019-03-25T07:34:12.947Z,0.80
2019-03-25T07:36:41.577Z,1.30
2019-03-25T07:39:10.315Z,1.67
2019-03-25T07:41:39.004Z,0.93
2019-03-25T07:44:08.794Z,0.80
2019-03-25T07:46:38.039Z,1.83
2019-03-25T07:49:06.982Z,2.17
2019-03-25T07:51:35.655Z,0.90
2019-03-25T07:54:05.034Z,1.77
2019-03-25T07:56:33.826Z,0.80
2019-03-25T07:59:02.546Z,1.97
2019-03-25T08:01:31.846Z,2.00
2019-03-25T08:04:01.404Z,2.10
2019-03-25T08:06:30.066Z,2.10
2019-03-25T08:09:03.788Z,1.10
2019-03-25T08:11:29.148Z,1.67
2019-03-25T08:13:57.792Z,1.67
2019-03-25T08:16:26.488Z,2.50
2019-03-25T08:18:55.210Z,1.90
2019-03-25T08:21:25.122Z,1.63
2019-03-25T08:23:54.281Z,1.63
2019-03-25T08:26:23.021Z,1.62
2019-03-25T08:28:51.800Z,1.90
2019-03-25T08:31:20.518Z,2.77
2019-03-25T08:33:49.151Z,1.93
2019-03-25T08:36:17.838Z,1.42
2019-03-25T08:38:46.566Z,1.67
2019-03-25T08:41:15.285Z,2.07
2019-03-25T08:43:43.918Z,1.10
2019-03-25T08:46:12.690Z,1.50
2019-03-25T08:48:41.382Z,1.57
2019-03-25T08:51:10.159Z,0.73
2019-03-25T08:53:38.836Z,1.50
2019-03-25T08:56:07.559Z,1.40
2019-03-25T08:58:36.269Z,2.20
2019-03-25T09:01:05.006Z,1.40
2019-03-25T09:03:33.623Z,1.17
2019-03-25T09:06:02.339Z,1.10
2019-03-25T09:08:30.970Z,1.22
2019-03-25T09:10:59.708Z,1.40
2019-03-25T09:13:28.318Z,0.97
2019-03-25T09:15:57.096Z,1.30
2019-03-25T09:18:25.794Z,2.63
2019-03-25T09:20:54.483Z,1.77
2019-03-25T09:23:23.276Z,1.70
2019-03-25T09:25:52.082Z,2.15
2019-03-25T09:28:24.378Z,1.37
2019-03-25T09:30:54.076Z,1.63
2019-03-25T09:33:22.991Z,1.70
2019-03-25T09:35:53.564Z,1.37
2019-03-25T09:38:22.299Z,1.60
2019-03-25T09:40:51.092Z,1.03
2019-03-25T09:43:19.756Z,1.17
2019-03-25T09:45:48.470Z,1.53
2019-03-25T09:48:17.321Z,1.55
2019-03-25T09:50:45.941Z,1.40
2019-03-25T09:53:14.683Z,1.43
2019-03-25T09:55:43.341Z,2.10
2019-03-25T09:58:12.040Z,2.07
2019-03-25T10:00:40.756Z,2.30
2019-03-25T10:03:09.310Z,1.77
2019-03-25T10:05:38.129Z,1.60
2019-03-25T10:08:06.783Z,2.43
2019-03-25T10:10:35.443Z,1.30
2019-03-25T10:13:05.056Z,1.52
2019-03-25T10:15:33.710Z,1.37
2019-03-25T10:18:02.438Z,1.80
2019-03-25T10:20:31.175Z,1.83
2019-03-25T10:22:59.879Z,1.50
2019-03-25T10:25:28.605Z,2.07
2019-03-25T10:27:57.230Z,1.17
2019-03-25T10:30:26.353Z,1.40
2019-03-25T10:32:54.976Z,3.00
2019-03-25T10:35:23.708Z,3.12
2019-03-25T10:37:52.338Z,1.60
2019-03-25T10:40:21.103Z,1.55
2019-03-25T10:42:49.731Z,2.10
2019-03-25T10:45:19.172Z,1.60
2019-03-25T10:47:47.847Z,1.27
2019-03-25T10:50:16.544Z,1.40
2019-03-25T10:52:45.243Z,0.90
2019-03-25T10:55:13.984Z,1.40
2019-03-25T10:57:42.738Z,1.13
2019-03-25T11:00:13.244Z,1.13
2019-03-25T11:02:42.023Z,1.40
2019-03-25T11:05:12.344Z,1.25
2019-03-25T11:10:11.366Z,1.40
2019-03-25T11:12:40.094Z,1.70
2019-03-25T11:15:10.087Z,2.13
2019-03-25T11:17:38.820Z,1.60
2019-03-25T11:20:10.296Z,1.53
2019-03-25T11:22:38.988Z,1.60
2019-03-25T11:25:09.362Z,1.80
2019-03-25T11:27:38.164Z,1.83
2019-03-25T11:30:09.348Z,1.83
2019-03-25T11:32:38.018Z,2.10
2019-03-25T11:35:09.528Z,1.83
2019-03-25T11:37:38.240Z,1.52
2019-03-25T11:40:09.778Z,1.03
2019-03-25T11:42:38.497Z,1.10
2019-03-25T11:45:09.422Z,2.00
2019-03-25T11:47:38.131Z,2.03
2019-03-25T11:50:09.418Z,2.27
2019-03-25T11:52:38.124Z,2.00
2019-03-25T11:55:07.492Z,1.00
2019-03-25T11:57:36.167Z,1.23
2019-03-25T12:00:07.969Z,1.30
2019-03-25T12:02:36.698Z,1.23
2019-03-25T12:05:07.623Z,1.23
2019-03-25T12:07:36.364Z,1.23
2019-03-25T12:10:07.525Z,1.07
2019-03-25T12:12:36.204Z,1.17
2019-03-25T12:15:07.501Z,1.00
2019-03-25T12:17:36.248Z,0.60
2019-03-25T12:20:07.635Z,0.95
2019-03-25T12:22:36.380Z,1.43
2019-03-25T12:25:07.647Z,2.55
2019-03-25T12:27:36.254Z,1.17
2019-03-25T12:30:07.421Z,2.30
2019-03-25T12:32:36.092Z,2.20
2019-03-25T12:35:07.635Z,1.92
2019-03-25T12:37:36.340Z,1.20
2019-03-25T12:40:07.867Z,1.67
2019-03-25T12:42:36.784Z,1.27
2019-03-25T12:45:07.793Z,1.50
2019-03-25T12:47:36.494Z,1.90
2019-03-25T12:50:07.944Z,1.30
2019-03-25T12:52:36.569Z,2.43
2019-03-25T12:55:07.024Z,1.37
2019-03-25T12:57:35.754Z,1.53
2019-03-25T13:00:07.305Z,1.10
2019-03-25T13:02:36.208Z,1.43
2019-03-25T13:05:06.702Z,1.07
2019-03-25T13:07:35.415Z,1.63
2019-03-25T13:10:07.917Z,1.62
2019-03-25T13:12:36.663Z,1.27
2019-03-25T13:15:07.984Z,1.73
2019-03-25T13:17:36.706Z,1.33
2019-03-25T13:20:06.976Z,1.67
2019-03-25T13:22:35.741Z,2.37
2019-03-25T13:25:05.834Z,1.23
2019-03-25T13:27:34.573Z,1.13
2019-03-25T13:30:03.339Z,1.30
2019-03-25T13:32:32.084Z,2.90
2019-03-25T13:35:00.881Z,2.07
2019-03-25T13:37:29.791Z,2.00
2019-03-25T13:39:58.625Z,1.60
2019-03-25T13:42:27.266Z,2.10
2019-03-25T13:44:57.681Z,3.10
2019-03-25T13:47:26.823Z,2.63
2019-03-25T13:49:55.433Z,1.97
2019-03-25T13:52:24.289Z,1.60
2019-03-25T13:54:52.982Z,2.03
2019-03-25T13:57:21.664Z,1.20
2019-03-25T13:59:50.404Z,1.40
2019-03-25T14:02:19.097Z,1.50
2019-03-25T14:04:47.779Z,1.27
2019-03-25T14:07:16.576Z,0.98
2019-03-25T14:09:45.385Z,3.07
2019-03-25T14:12:14.027Z,0.72
2019-03-25T14:14:42.677Z,0.83
2019-03-25T14:17:11.375Z,3.45
2019-03-25T14:19:40.071Z,1.40
2019-03-25T14:22:09.076Z,0.83
2019-03-25T14:24:37.891Z,1.50
2019-03-25T14:27:06.598Z,1.53
2019-03-25T14:29:35.450Z,1.40
2019-03-25T14:32:04.194Z,1.27
2019-03-25T14:34:32.824Z,2.40
2019-03-25T14:37:01.632Z,1.20
2019-03-25T14:39:32.464Z,1.10
2019-03-25T14:42:01.227Z,0.90
2019-03-25T14:44:29.849Z,2.83
2019-03-25T14:46:58.586Z,1.70
2019-03-25T14:49:27.222Z,1.50
2019-03-25T14:51:55.852Z,1.93
2019-03-25T14:54:24.681Z,1.57
2019-03-25T14:56:53.299Z,1.03
2019-03-25T14:59:22.047Z,1.50
2019-03-25T15:01:50.924Z,1.43
2019-03-25T15:04:19.608Z,1.70
2019-03-25T15:06:48.276Z,1.07
2019-03-25T15:09:16.938Z,1.77
2019-03-25T15:11:45.631Z,1.20
2019-03-25T15:14:14.389Z,1.10
2019-03-25T15:16:43.099Z,2.87
2019-03-25T15:19:11.837Z,1.30
2019-03-25T15:21:40.554Z,1.87
2019-03-25T15:24:09.191Z,1.40
2019-03-25T15:26:37.970Z,1.77
2019-03-25T15:29:06.683Z,1.80
2019-03-25T15:31:35.357Z,1.67
2019-03-25T15:34:05.012Z,1.75
2019-03-25T15:36:33.869Z,2.50
2019-03-25T15:39:02.554Z,1.90
2019-03-25T15:41:31.303Z,2.33
2019-03-25T15:43:59.986Z,1.50
2019-03-25T15:46:28.841Z,2.30
2019-03-25T15:48:57.522Z,1.80
2019-03-25T15:51:26.360Z,1.60
2019-03-25T15:53:54.904Z,1.50
2019-03-25T15:56:23.602Z,1.53
2019-03-25T15:58:52.319Z,2.10
2019-03-25T16:01:21.048Z,1.80
2019-03-25T16:03:49.739Z,2.10
2019-03-25T16:06:18.413Z,1.80
2019-03-25T16:08:47.032Z,1.95
2019-03-25T16:11:15.736Z,2.17
2019-03-25T16:13:44.380Z,2.13
2019-03-25T16:16:13.165Z,2.20
2019-03-25T16:18:43.281Z,2.20
2019-03-25T16:21:12.092Z,1.97
2019-03-25T16:23:40.785Z,1.47
2019-03-25T16:26:09.426Z,2.17
2019-03-25T16:28:38.141Z,2.20
2019-03-25T16:31:06.908Z,2.27
2019-03-25T16:33:35.808Z,1.97
2019-03-25T16:36:05.273Z,2.20
2019-03-25T16:38:34.798Z,2.47
2019-03-25T16:41:06.651Z,2.50
2019-03-25T16:43:35.838Z,1.90
2019-03-25T16:46:04.891Z,1.83
2019-03-25T16:48:33.653Z,1.80
2019-03-25T16:51:02.293Z,2.23
2019-03-25T16:53:31.035Z,1.47
2019-03-25T16:56:00.327Z,1.60
2019-03-25T16:58:29.256Z,2.80
2019-03-25T17:01:09.126Z,2.20
2019-03-25T17:03:28.482Z,2.20
2019-03-25T17:05:58.388Z,2.33
2019-03-25T17:08:29.615Z,1.77
2019-03-25T17:11:00.014Z,1.60
2019-03-25T17:13:28.770Z,1.40
2019-03-25T17:15:57.478Z,1.50
2019-03-25T17:18:26.200Z,2.10
2019-03-25T17:20:54.970Z,2.55
2019-03-25T17:23:25.564Z,2.70
2019-03-25T17:25:54.595Z,3.00
2019-03-25T17:28:23.917Z,3.47
2019-03-25T17:30:52.734Z,2.33
2019-03-25T17:33:21.360Z,3.07
2019-03-25T17:35:50.007Z,3.12
2019-03-25T17:38:18.847Z,3.83
2019-03-25T17:40:47.635Z,3.30
2019-03-25T17:43:16.497Z,2.70
2019-03-25T17:45:45.248Z,2.10
2019-03-25T17:48:13.988Z,2.30
2019-03-25T17:50:42.759Z,3.13
2019-03-25T17:53:12.082Z,2.85
2019-03-25T17:55:40.881Z,2.85
2019-03-25T17:58:12.977Z,2.80
2019-03-25T18:00:49.895Z,2.90
2019-03-25T18:03:18.462Z,2.70
2019-03-25T18:05:47.256Z,3.20
2019-03-25T18:08:16.080Z,2.90
2019-03-25T18:10:44.723Z,3.00
2019-03-25T18:13:21.962Z,3.83
2019-03-25T18:15:43.831Z,2.98
2019-03-25T18:18:12.516Z,2.30
2019-03-25T18:20:41.218Z,2.77
2019-03-25T18:23:09.982Z,1.67
2019-03-25T18:25:38.682Z,2.90
2019-03-25T18:28:08.514Z,2.47
2019-03-25T18:30:39.803Z,2.30
2019-03-25T18:33:09.779Z,2.70
2019-03-25T18:35:38.456Z,3.10
2019-03-25T18:38:07.249Z,3.10
2019-03-25T18:40:36.655Z,2.80
2019-03-25T18:43:05.469Z,2.33
2019-03-25T18:45:34.207Z,2.03
2019-03-25T18:48:02.930Z,2.17
2019-03-25T18:50:31.649Z,2.27
2019-03-25T18:53:00.415Z,2.50
2019-03-25T18:55:29.140Z,2.53
2019-03-25T18:57:57.837Z,1.70
2019-03-25T19:00:34.854Z,1.53
2019-03-25T19:03:05.402Z,2.40
2019-03-25T19:05:35.193Z,2.53
2019-03-25T19:08:05.566Z,2.90
2019-03-25T19:10:34.360Z,2.70
2019-03-25T19:13:03.068Z,2.27
2019-03-25T19:15:31.765Z,2.60
2019-03-25T19:18:00.613Z,2.33
2019-03-25T19:20:29.330Z,2.83
2019-03-25T19:22:58.103Z,2.70
2019-03-25T19:25:26.908Z,2.10
2019-03-25T19:27:55.519Z,2.72
2019-03-25T19:30:24.247Z,2.30
2019-03-25T19:32:53.006Z,2.90
2019-03-25T19:35:21.794Z,2.07
2019-03-25T19:37:50.778Z,2.50
2019-03-25T19:40:19.543Z,3.37
2019-03-25T19:42:48.278Z,3.00
2019-03-25T19:45:17.620Z,2.30
2019-03-25T19:47:46.375Z,1.75
2019-03-25T19:50:15.955Z,2.60
2019-03-25T19:52:44.587Z,1.87
2019-03-25T19:55:13.434Z,1.80
2019-03-25T19:57:42.290Z,4.47
2019-03-25T20:00:15.036Z,1.35
2019-03-25T20:02:44.737Z,2.40
2019-03-25T20:05:13.561Z,2.00
2019-03-25T20:07:42.363Z,3.20
2019-03-25T20:10:14.126Z,2.90
2019-03-25T20:12:43.807Z,3.60
2019-03-25T20:15:12.696Z,3.50
2019-03-25T20:17:41.368Z,2.53
2019-03-25T20:20:10.264Z,1.87
2019-03-25T20:22:39.067Z,4.77
2019-03-25T20:25:07.800Z,3.15
2019-03-25T20:27:36.562Z,3.10
2019-03-25T20:30:11.032Z,3.03
2019-03-25T20:32:39.934Z,2.80
2019-03-25T20:35:08.860Z,3.70
2019-03-25T20:37:37.602Z,4.03
2019-03-25T20:40:09.061Z,3.70
2019-03-25T20:42:38.584Z,3.58
2019-03-25T20:45:09.076Z,3.62
2019-03-25T20:47:37.834Z,3.47
2019-03-25T20:50:07.081Z,5.53
2019-03-25T20:52:35.844Z,2.97
2019-03-25T20:55:31.688Z,3.60
2019-03-25T20:58:00.537Z,3.70
2019-03-25T21:00:58.842Z,3.10
2019-03-25T21:03:28.405Z,2.20
2019-03-25T21:05:57.108Z,2.50
2019-03-25T21:08:25.913Z,2.33
2019-03-25T21:10:54.835Z,3.07
2019-03-25T21:13:23.694Z,4.12
2019-03-25T21:15:52.685Z,2.92
2019-03-25T21:18:37.992Z,2.50
2019-03-25T21:21:07.797Z,3.98
2019-03-25T21:23:37.415Z,4.27
2019-03-25T21:26:06.211Z,4.50
2019-03-25T21:28:41.543Z,3.70
2019-03-25T21:31:14.349Z,3.23
2019-03-25T21:33:43.181Z,3.90
2019-03-25T21:36:12.079Z,2.13
2019-03-25T21:38:40.981Z,3.83
2019-03-25T21:41:10.246Z,3.05
2019-03-25T21:43:39.022Z,3.00
2019-03-25T21:46:07.844Z,3.03
2019-03-25T21:48:39.931Z,3.37
2019-03-25T21:51:08.946Z,2.45
2019-03-25T21:53:37.656Z,2.37
2019-03-25T21:56:08.127Z,2.33
2019-03-25T21:58:45.257Z,2.70
2019-03-25T22:01:14.027Z,3.98
2019-03-25T22:03:43.834Z,2.37
2019-03-25T22:06:18.346Z,2.80
2019-03-25T22:08:47.067Z,2.70
2019-03-25T22:11:15.856Z,2.45
2019-03-25T22:13:44.569Z,3.17
2019-03-25T22:16:15.627Z,3.80
2019-03-25T22:18:44.437Z,4.37
2019-03-25T22:21:13.162Z,3.80
2019-03-25T22:23:41.950Z,3.13
2019-03-25T22:26:10.815Z,2.90
2019-03-25T22:28:39.437Z,2.23
2019-03-25T22:31:08.165Z,2.10
2019-03-25T22:33:36.925Z,2.00
2019-03-25T22:36:05.721Z,2.97
2019-03-25T22:38:34.447Z,2.43
2019-03-25T22:41:03.073Z,2.90
2019-03-25T22:43:34.744Z,3.90
2019-03-25T22:46:04.462Z,2.80
2019-03-25T22:48:33.952Z,2.50
2019-03-25T22:51:03.685Z,3.47
2019-03-25T22:53:33.125Z,2.60
2019-03-25T22:56:02.980Z,1.80
2019-03-25T22:58:32.872Z,3.60
2019-03-25T23:01:04.259Z,2.07
2019-03-25T23:03:39.005Z,3.57
2019-03-25T23:06:05.353Z,2.03
2019-03-25T23:08:34.967Z,2.93
2019-03-25T23:11:04.625Z,2.20
2019-03-25T23:13:34.592Z,2.80
2019-03-25T23:16:04.097Z,2.60
2019-03-25T23:18:33.634Z,2.17
2019-03-25T23:21:03.275Z,2.73
2019-03-25T23:23:32.786Z,2.43
2019-03-25T23:26:02.417Z,2.80
2019-03-25T23:28:32.101Z,3.50
2019-03-25T23:31:01.556Z,2.67
2019-03-25T23:33:31.048Z,1.73
2019-03-25T23:36:00.856Z,2.77
2019-03-25T23:38:30.415Z,2.30
2019-03-25T23:40:59.046Z,2.07
2019-03-25T23:43:27.936Z,2.00
2019-03-25T23:45:56.576Z,2.50
2019-03-25T23:48:25.124Z,1.60
2019-03-25T23:50:53.869Z,2.00
2019-03-25T23:53:22.521Z,2.80
2019-03-25T23:55:51.218Z,2.10
2019-03-25T23:58:19.921Z,2.00
